This is the latest recevied weather packets stored in our database for station/object KD5HIA. If no packets are shown the sender has not sent any weather packets the latest 10 day(s).
| Time | Temp. | Humidity | Pressure | Rain* | Wind** | Luminosity | Snow |
|---|---|---|---|---|---|---|---|
| 1777877417 | 17.78° C | 60% | 1014.7 hPa | 0 mm | - | 0 W/m² | - |
| 1777876817 | 17.78° C | 60% | 1014.9 hPa | 0 mm | - | 0 W/m² | - |
| 1777876217 | 17.78° C | 60% | 1014.8 hPa | 0 mm | - | 0 W/m² | - |
| 1777875617 | 17.78° C | 60% | 1014.8 hPa | 0 mm | - | 0 W/m² | - |
| 1777875017 | 17.78° C | 60% | 1015 hPa | 0 mm | - | 0 W/m² | - |
| 1777874417 | 17.78° C | 62% | 1015.1 hPa | 0 mm | - | 0 W/m² | - |
| 1777873817 | 17.22° C | 64% | 1015.1 hPa | 0 mm | - | 0 W/m² | - |
| 1777873217 | 17.22° C | 64% | 1015.3 hPa | 0 mm | - | 0 W/m² | - |
| 1777872617 | 17.78° C | 63% | 1015.5 hPa | 0 mm | - | 0 W/m² | - |
| 1777872017 | 17.78° C | 63% | 1015.7 hPa | 0 mm | - | 0 W/m² | - |
| 1777871417 | 17.78° C | 63% | 1015.9 hPa | 0 mm | - | 0 W/m² | - |
| 1777870817 | 18.33° C | 62% | 1016.1 hPa | 0 mm | - | 0 W/m² | - |
| 1777870217 | 18.33° C | 61% | 1016.3 hPa | 0 mm | - | 0 W/m² | - |
| 1777869617 | 18.33° C | 62% | 1016.3 hPa | 0 mm | - | 0 W/m² | - |
| 1777869017 | 18.33° C | 61% | 1016.3 hPa | 0 mm | - | 0 W/m² | - |
| 1777868421 | 17.78° C | 63% | 1016.1 hPa | 0 mm | - | 0 W/m² | - |
| 1777867821 | 18.33° C | 60% | 1016.2 hPa | 0 mm | - | 0 W/m² | - |
| 1777867221 | 18.89° C | 59% | 1016.5 hPa | 0 mm | - | 0 W/m² | - |
| 1777866617 | 18.33° C | 60% | 1016.2 hPa | 0 mm | - | 0 W/m² | - |
| 1777866017 | 18.33° C | 62% | 1016 hPa | 0 mm | - | 0 W/m² | - |
| 1777865417 | 18.89° C | 60% | 1016.1 hPa | 0 mm | - | 0 W/m² | - |
| 1777864817 | 18.89° C | 60% | 1015.9 hPa | 0 mm | - | 0 W/m² | - |
| 1777864217 | 18.89° C | 59% | 1015.8 hPa | 0 mm | - | 0 W/m² | - |
| 1777863617 | 18.89° C | 59% | 1015.8 hPa | 0 mm | - | 0 W/m² | - |
| 1777863017 | 19.44° C | 58% | 1015.7 hPa | 0 mm | - | 0 W/m² | - |
* Rain latest hour (hover to see other rain measurements)
** Current wind speed in m/s (hover to see current wind gust speed)